Latest Weather Observations for Tuggeranong

IDN60901

Issued at 9:01 pm EST Tuesday 7 July 2015 (issued every 10 minutes, with the page automatically refreshed every 10 minutes)

About weather observations | Map of Canberra area stations | Latest observations for Canberra area | Other Formats
Station Details ID: 070339 Name: TUGGERANONG (ISABELLA PLAINS) AWS Lat: -35.42 Lon: 149.09 Height: 586.7 m
Data from the previous 72 hours. | See also: Recent months at Tuggeranong
Date/Time
EST
Tmp

°C
App
Tmp
°C
Dew
Point
°C
Rel
Hum
%
Delta-T

°C
Wind Press
QNH
hPa
Press
MSL
hPa
Rain
since
9 am
mm
Dir
 
Spd
km/h
Gust
km/h
Spd
kts
Gust
kts
07/08:30pm 5.6 4.2 3.6 87 0.9 CALM 0 0 0 0 1024.9 1026.0 0.0
07/08:00pm 5.5 3.3 3.2 85 1.0 ENE 4 7 2 4 1024.5 1025.7 0.0
07/07:30pm 5.7 4.2 3.0 83 1.2 CALM 0 6 0 3 1024.1 1025.3 0.0
07/07:00pm 6.1 4.6 3.1 81 1.3 CALM 0 0 0 0 1023.8 1025.0 0.0
07/06:30pm 6.8 5.4 3.6 80 1.4 CALM 0 0 0 0 1023.4 1024.5 0.0
07/05:30pm 8.4 6.9 3.1 69 2.3 CALM 0 0 0 0 1022.7 1023.9 0.0
07/05:00pm 9.5 7.6 2.8 63 3.0 SSE 2 7 1 4 1022.3 1023.5 0.0
07/04:30pm 9.8 8.2 2.2 59 3.3 CALM 0 6 0 3 1022.0 1023.1 0.0
07/04:00pm 10.3 7.0 2.2 57 3.5 ESE 9 11 5 6 1021.6 1022.7 0.0
07/03:30pm 10.4 7.5 2.5 58 3.5 SE 7 11 4 6 1021.5 1022.6 0.0
07/03:00pm 10.5 6.8 2.4 57 3.6 SSE 11 17 6 9 1021.3 1022.4 0.0
07/02:30pm 10.6 7.0 2.7 58 3.5 SSE 11 19 6 10 1020.9 1022.1 0.0
07/02:00pm 11.0 7.4 2.8 57 3.7 SE 11 19 6 10 1020.6 1021.7 0.0
07/01:30pm 11.6 8.3 2.6 54 4.0 ESE 9 19 5 10 1020.6 1021.7 0.0
07/01:00pm 11.7 8.3 1.9 51 4.3 S 9 17 5 9 1020.6 1021.7 0.0
07/12:30pm 11.6 8.4 3.1 56 3.8 SSW 9 17 5 9 1020.7 1021.8 0.0
07/11:30am 9.3 6.7 3.3 66 2.7 NE 6 7 3 4 1021.3 1022.4 0.0
07/11:00am 8.3 6.0 3.0 69 2.3 SW 4 7 2 4 1021.4 1022.5 0.0
07/10:30am 6.6 3.8 2.3 74 1.8 W 6 11 3 6 1021.7 1022.8 0.0
07/10:00am 5.4 2.7 2.4 81 1.3 WNW 6 7 3 4 1021.7 1022.8 0.0
07/09:30am 3.4 0.5 1.6 88 0.7 WSW 6 9 3 5 1021.5 1022.6 0.0
07/09:00am 2.7 1.0 2.0 95 0.3 CALM 0 0 0 0 1021.3 1022.4 0.0
07/08:30am 0.0 -2.0 0.0 100 0.0 CALM 0 0 0 0 1021.1 1022.2 0.0
07/08:00am -2.0 -4.3 -2.1 99 -0.1 CALM 0 0 0 0 1020.8 1021.9 0.0
07/07:30am -2.9 -5.3 -3.2 98 0.0 CALM 0 0 0 0 1020.5 1021.6 0.0
07/07:00am -3.1 -5.5 -3.4 98 0.0 CALM 0 0 0 0 1020.1 1021.2 0.0
07/06:30am -3.0 -5.4 -3.3 98 0.0 CALM 0 0 0 0 1019.5 1020.6 0.0
07/05:30am -2.2 -4.5 -2.3 99 -0.1 CALM 0 0 0 0 1018.7 1019.8 0.0
07/05:00am -2.1 -4.4 -2.4 98 0.0 CALM 0 0 0 0 1018.5 1019.6 0.0
07/04:30am -1.4 -3.6 -1.4 100 0.0 CALM 0 0 0 0 1018.3 1019.4 0.0
07/04:00am -0.5 -3.7 -0.5 100 0.0 NE 6 9 3 5 1018.1 1019.2 0.0
07/03:30am -1.5 -3.7 -1.5 100 0.0 CALM 0 0 0 0 1018.2 1019.3 0.0
07/02:30am -1.7 -4.0 -2.3 96 0.1 CALM 0 6 0 3 1017.9 1018.9 0.0
07/02:00am -0.9 -3.1 -1.2 98 0.1 CALM 0 6 0 3 1017.6 1018.6 0.0
07/01:30am 0.0 -3.3 -0.1 99 0.0 E 7 9 4 5 1017.5 1018.5 0.0
07/01:00am -0.3 -2.4 -0.7 97 0.1 CALM 0 0 0 0 1017.3 1018.4 0.0
07/12:30am 0.4 -1.6 -0.2 96 0.2 CALM 0 0 0 0 1017.5 1018.5 0.0
07/12:00am 0.9 -1.4 0.2 95 0.3 E 2 7 1 4 1017.5 1018.5 0.0
 
Date/Time
EST
Tmp

°C
App
Tmp
°C
Dew
Point
°C
Rel
Hum
%
Delta-T

°C
Wind Press
QNH
hPa
Press
MSL
hPa
Rain
since
9 am
mm
Dir
 
Spd
km/h
Gust
km/h
Spd
kts
Gust
kts
06/11:30pm 1.3 -1.9 0.7 96 0.2 ENE 7 9 4 5 1017.2 1018.3 0.0
06/11:00pm 1.4 -0.9 0.4 93 0.4 NE 2 7 1 4 1017.5 1018.5 0.0
06/10:30pm 2.3 -0.7 0.7 89 0.6 E 6 7 3 4 1017.3 1018.4 0.0
06/10:00pm 3.1 0.0 1.5 89 0.6 NE 7 11 4 6 1017.0 1018.1 0.0
06/09:30pm 2.8 -0.7 1.3 90 0.6 NE 9 11 5 6 1016.8 1017.9 0.0
06/09:00pm 3.1 0.2 1.2 87 0.8 E 6 9 3 5 1016.7 1017.8 0.0
06/08:30pm 3.9 0.8 1.6 85 0.9 ENE 7 9 4 5 1016.6 1017.7 0.0
06/08:00pm 4.6 1.5 1.6 81 1.2 ENE 7 9 4 5 1016.7 1017.8 0.0
06/07:30pm 5.5 2.5 2.0 78 1.5 E 7 11 4 6 1016.4 1017.4 0.0
06/07:00pm 6.1 3.1 2.2 76 1.6 ENE 7 7 4 4 1016.2 1017.2 0.0
06/06:30pm 6.4 4.4 2.1 74 1.8 N 2 7 1 4 1015.9 1016.9 0.0
06/06:00pm 7.0 4.6 2.1 71 2.1 NNW 4 11 2 6 1015.8 1016.8 0.0
06/05:30pm 7.3 4.3 2.2 70 2.2 NW 7 9 4 5 1015.1 1016.1 0.0
06/05:00pm 8.0 4.7 2.3 67 2.5 NW 9 15 5 8 1015.0 1016.0 0.0
06/04:30pm 8.9 7.3 2.5 64 2.8 CALM 0 0 0 0 1014.8 1015.8 0.0
06/04:00pm 9.5 6.8 2.6 62 3.0 W 6 9 3 5 1014.5 1015.5 0.0
06/03:30pm 10.3 7.4 2.4 58 3.5 N 7 15 4 8 1014.5 1015.5 0.0
06/03:00pm 10.2 7.5 2.8 60 3.3 WSW 6 9 3 5 1014.5 1015.5 0.0
06/02:30pm 9.5 7.1 2.4 61 3.1 WSW 4 9 2 5 1014.3 1015.3 0.0
06/02:00pm 8.9 6.5 2.0 62 3.0 ENE 4 7 2 4 1014.6 1015.6 0.0
06/01:30pm 8.3 5.3 2.1 65 2.7 W 7 9 4 5 1014.7 1015.7 0.0
06/01:00pm 7.3 4.3 1.8 68 2.3 SW 7 9 4 5 1014.9 1015.9 0.0
06/12:30pm 5.9 3.0 1.2 72 1.9 SW 6 9 3 5 1015.3 1016.4 0.0
06/12:00pm 4.9 1.8 1.2 77 1.5 SW 7 11 4 6 1016.0 1017.0 0.0
06/11:30am 4.1 1.1 1.1 81 1.2 WSW 6 9 3 5 1016.5 1017.5 0.0
06/11:00am 3.4 0.4 1.1 85 0.9 NNE 6 9 3 5 1016.9 1018.0 0.0
06/10:30am 2.9 0.4 1.4 90 0.6 WSW 4 7 2 4 1017.1 1018.2 0.0
06/10:00am 2.6 0.8 1.4 92 0.5 CALM 0 0 0 0 1017.2 1018.3 0.0
06/09:30am 2.4 0.3 1.5 94 0.4 S 2 9 1 5 1017.2 1018.3 0.0
06/09:00am 2.2 0.5 1.6 96 0.2 CALM 0 0 0 0 1017.1 1018.2 0.0
06/08:30am 2.0 -0.9 1.6 97 0.2 SE 6 9 3 5 1017.1 1018.2 0.0
06/08:00am 2.0 -0.9 1.4 96 0.2 SE 6 7 3 4 1017.0 1018.1 0.0
06/07:30am 1.9 0.1 1.5 97 0.2 CALM 0 0 0 0 1016.8 1017.9 0.0
06/07:00am 1.9 -0.6 1.3 96 0.2 N 4 9 2 5 1016.7 1017.8 0.0
06/06:30am 2.0 -0.5 1.7 98 0.1 N 4 7 2 4 1016.6 1017.7 0.0
06/06:00am 2.0 -0.8 1.9 99 0.0 NW 6 9 3 5 1016.6 1017.7 0.0
06/05:30am 2.1 0.4 2.0 99 0.0 CALM 0 0 0 0 1016.6 1017.7 0.0
06/05:00am 2.1 -0.7 2.0 99 0.0 W 6 6 3 3 1016.8 1017.9 0.0
06/04:30am 2.2 0.5 2.1 99 0.0 CALM 0 0 0 0 1016.9 1018.0 0.0
06/04:00am 2.3 -0.5 2.2 99 0.0 NW 6 9 3 5 1017.0 1018.1 0.0
06/03:30am 2.5 0.9 2.4 99 0.0 CALM 0 4 0 2 1017.2 1018.3 0.0
06/03:00am 2.6 -0.3 2.5 99 0.0 N 7 11 4 6 1017.5 1018.5 0.0
06/02:30am 2.8 -0.1 2.7 99 0.0 N 7 9 4 5 1017.8 1018.8 0.0
06/02:00am 2.9 1.0 2.8 99 0.0 SW 2 6 1 3 1018.0 1019.0 0.0
06/01:30am 3.1 1.6 2.8 98 0.1 CALM 0 0 0 0 1018.1 1019.2 0.0
06/01:00am 3.2 1.7 3.1 99 0.0 CALM 0 0 0 0 1018.3 1019.4 0.0
06/12:30am 3.2 1.7 3.1 99 0.0 CALM 0 0 0 0 1018.6 1019.7 0.0
06/12:00am 3.2 1.3 3.1 99 0.0 E 2 7 1 4 1018.9 1020.0 0.0
 
Date/Time
EST
Tmp

°C
App
Tmp
°C
Dew
Point
°C
Rel
Hum
%
Delta-T

°C
Wind Press
QNH
hPa
Press
MSL
hPa
Rain
since
9 am
mm
Dir
 
Spd
km/h
Gust
km/h
Spd
kts
Gust
kts
05/11:30pm 3.1 1.5 2.7 97 0.2 CALM 0 0 0 0 1019.0 1020.1 0.0
05/11:00pm 2.8 1.2 2.4 97 0.2 CALM 0 0 0 0 1019.0 1020.1 0.0
05/10:30pm 2.6 1.0 2.3 98 0.1 CALM 0 0 0 0 1019.1 1020.2 0.0
05/10:00pm 2.3 0.7 2.2 99 0.0 CALM 0 0 0 0 1019.1 1020.2 0.0
05/09:30pm 2.0 0.3 1.9 99 0.0 CALM 0 0 0 0 1019.3 1020.3 0.0
05/09:00pm 1.4 -0.4 1.3 99 0.0 CALM 0 0 0 0 1019.1 1020.2 0.0
05/08:30pm 1.1 -0.7 1.0 99 0.0 CALM 0 0 0 0 1019.3 1020.3 0.0
05/08:00pm 0.2 -1.8 -0.1 98 0.1 CALM 0 0 0 0 1019.3 1020.3 0.0
05/07:30pm 0.4 -1.6 0.0 97 0.2 CALM 0 0 0 0 1019.3 1020.3 0.0
05/07:00pm 0.3 -1.7 -0.4 95 0.3 CALM 0 0 0 0 1019.3 1020.3 0.0
05/06:30pm 0.5 -1.5 -0.2 95 0.3 CALM 0 0 0 0 1019.0 1020.1 0.0
05/06:00pm 1.1 -0.9 -0.1 92 0.5 CALM 0 0 0 0 1018.9 1020.0 0.0
05/05:30pm 1.7 -0.2 0.4 91 0.5 CALM 0 0 0 0 1018.8 1019.9 0.0
05/05:00pm 2.4 0.5 0.8 89 0.6 CALM 0 6 0 3 1018.6 1019.7 0.0
05/04:30pm 3.3 0.7 1.2 86 0.8 SW 4 7 2 4 1018.6 1019.7 0.0
05/04:00pm 3.6 1.8 1.5 86 0.8 CALM 0 0 0 0 1018.7 1019.8 0.0
05/03:30pm 3.6 1.4 1.3 85 0.9 WSW 2 7 1 4 1018.8 1019.9 0.0
05/03:00pm 3.4 0.5 1.3 86 0.8 NNW 6 9 3 5 1018.8 1019.9 0.0
05/02:30pm 2.9 -0.6 1.3 89 0.6 N 9 13 5 7 1019.1 1020.2 0.0
05/02:00pm 3.1 -0.8 1.0 86 0.8 NNW 11 15 6 8 1019.1 1020.2 0.0
05/01:30pm 3.9 0.4 1.1 82 1.1 NNW 9 15 5 8 1019.4 1020.4 0.0
05/01:00pm 3.6 0.4 0.8 82 1.1 NNE 7 11 4 6 1019.8 1020.9 0.0
05/12:30pm 3.2 -0.4 0.9 85 0.9 WNW 9 13 5 7 1020.3 1021.4 0.0
05/12:00pm 2.5 -0.5 1.0 90 0.6 NW 6 9 3 5 1020.7 1021.8 0.0
05/11:30am 2.2 -0.8 1.0 92 0.5 WNW 6 9 3 5 1021.3 1022.4 0.0
05/11:00am 1.3 -1.0 0.7 96 0.2 NE 2 6 1 3 1021.8 1022.9 0.0
05/10:30am 1.0 -0.9 0.7 98 0.1 CALM 0 0 0 0 1022.3 1023.5 0.0
05/10:00am 0.8 -1.8 0.7 99 0.0 W 4 7 2 4 1022.7 1023.9 0.0
05/09:30am 0.2 -1.8 0.1 99 0.0 CALM 0 2 0 1 1022.6 1023.8 0.0
05/09:00am -0.5 -2.6 -0.6 99 0.0 CALM 0 0 0 0 1022.5 1023.7 0.0
05/08:30am -1.4 -3.6 -1.5 99 0.0 CALM 0 0 0 0 1022.5 1023.7 0.0
05/08:00am -2.5 -4.9 -2.9 97 0.0 CALM 0 0 0 0 1022.6 1023.8 0.0
05/07:30am -3.3 -5.8 -4.0 95 0.1 CALM 0 0 0 0 1022.5 1023.7 0.0
05/07:00am -3.7 -6.3 -4.5 94 0.1 CALM 0 0 0 0 1022.2 1023.3 0.0
05/06:30am -3.8 -6.4 -4.6 94 0.1 CALM 0 0 0 0 1022.0 1023.1 0.0
05/06:00am -4.0 -6.6 -4.8 94 0.1 CALM 0 0 0 0 1021.7 1022.8 0.0
05/05:30am -3.8 -6.4 -4.5 95 0.1 CALM 0 0 0 0 1021.5 1022.6 0.0
05/05:00am -3.6 -6.1 -4.3 95 0.1 CALM 0 0 0 0 1021.3 1022.4 0.0
05/04:30am -3.3 -5.8 -4.0 95 0.1 CALM 0 0 0 0 1021.4 1022.5 0.0
05/04:00am -3.2 -5.7 -4.0 94 0.1 CALM 0 0 0 0 1021.5 1022.6 0.0
05/03:30am -2.7 -6.3 -3.4 95 0.1 E 6 7 3 4 1021.6 1022.7 0.0
05/03:00am -2.4 -4.8 -3.2 94 0.2 CALM 0 6 0 3 1022.1 1023.2 0.0
05/02:30am -2.1 -4.5 -2.8 95 0.1 CALM 0 0 0 0 1022.1 1023.2 0.0
05/02:00am -1.4 -3.7 -2.0 96 0.1 CALM 0 0 0 0 1022.2 1023.3 0.0
05/01:30am -1.3 -3.5 -1.7 97 0.1 CALM 0 0 0 0 1022.2 1023.3 0.0
05/01:00am -1.6 -3.9 -2.0 97 0.1 CALM 0 0 0 0 1022.0 1023.1 0.0
05/12:30am -2.0 -4.3 -2.4 97 0.0 CALM 0 0 0 0 1022.0 1023.1 0.0
05/12:00am -2.1 -4.4 -2.4 98 0.0 CALM 0 0 0 0 1022.3 1023.5 0.0
 
Date/Time
EST
Tmp

°C
App
Tmp
°C
Dew
Point
°C
Rel
Hum
%
Delta-T

°C
Wind Press
QNH
hPa
Press
MSL
hPa
Rain
since
9 am
mm
Dir
 
Spd
km/h
Gust
km/h
Spd
kts
Gust
kts
04/11:30pm -2.4 -4.8 -2.9 96 0.1 CALM 0 0 0 0 1022.6 1023.8 0.0
04/11:00pm -2.1 -4.5 -2.8 95 0.1 CALM 0 0 0 0 1022.7 1023.9 0.0
04/10:30pm -1.5 -4.2 -2.1 96 0.1 NW 2 7 1 4 1022.7 1023.9 0.0
04/10:00pm -1.3 -3.6 -2.1 94 0.2 CALM 0 0 0 0 1022.5 1023.7 0.0
04/09:30pm -0.4 -3.3 -1.4 93 0.3 E 4 7 2 4 1022.4 1023.6 0.0

Latest Capital City Observations: Canberra | Sydney | Melbourne | Brisbane | Adelaide | Perth | Hobart | Darwin

Other Formats:

Comma delimited format used in spreadsheet applications
http://www.bom.gov.au/fwo/IDN60903/IDN60903.94925.axf

JavaScript Object Notation format (JSON) in row-major order
http://www.bom.gov.au/fwo/IDN60903/IDN60903.94925.json